createdAt,value
2019-03-05T00:00:32.141Z,97.90
2019-03-05T00:03:05.001Z,96.90
2019-03-05T00:05:38.053Z,97.80
2019-03-05T00:08:11.541Z,96.50
2019-03-05T00:10:44.586Z,97.90
2019-03-05T00:13:17.501Z,98.20
2019-03-05T00:15:51.701Z,97.80
2019-03-05T00:18:24.640Z,97.80
2019-03-05T00:20:57.521Z,98.30
2019-03-05T00:23:30.441Z,97.70
2019-03-05T00:26:03.192Z,97.30
2019-03-05T00:28:36.061Z,97.30
2019-03-05T00:31:09.902Z,98.00
2019-03-05T00:33:42.741Z,97.40
2019-03-05T00:36:16.021Z,97.10
2019-03-05T00:38:49.021Z,96.90
2019-03-05T00:41:22.182Z,97.00
2019-03-05T00:43:55.221Z,98.10
2019-03-05T00:46:28.361Z,97.50
2019-03-05T00:49:01.405Z,97.70
2019-03-05T00:51:34.341Z,97.60
2019-03-05T00:54:07.380Z,98.10
2019-03-05T00:56:40.424Z,97.00
2019-03-05T00:59:13.835Z,97.30
2019-03-05T01:01:46.849Z,97.30
2019-03-05T01:04:19.862Z,96.80
2019-03-05T01:06:53.104Z,97.10
2019-03-05T01:09:27.021Z,97.40
2019-03-05T01:11:59.881Z,97.30
2019-03-05T01:14:34.361Z,97.80
2019-03-05T01:17:07.252Z,98.30
2019-03-05T01:19:40.281Z,97.60
2019-03-05T01:22:13.540Z,97.80
2019-03-05T01:24:47.317Z,99.40
2019-03-05T01:27:20.301Z,98.50
2019-03-05T01:29:53.181Z,97.10
2019-03-05T01:32:39.481Z,98.00
2019-03-05T01:35:13.922Z,97.40
2019-03-05T01:37:47.001Z,97.20
2019-03-05T01:40:21.441Z,97.30
2019-03-05T01:42:54.444Z,97.90
2019-03-05T01:45:27.825Z,98.20
2019-03-05T01:48:00.781Z,98.20
2019-03-05T01:50:35.701Z,98.00
2019-03-05T01:53:08.560Z,98.60
2019-03-05T01:55:42.321Z,99.00
2019-03-05T01:58:15.464Z,99.00
2019-03-05T02:00:48.860Z,98.00
2019-03-05T02:03:22.121Z,98.20
2019-03-05T02:05:55.521Z,98.90
2019-03-05T02:08:28.461Z,98.80
2019-03-05T02:11:01.414Z,98.70
2019-03-05T02:13:34.543Z,98.20
2019-03-05T02:16:07.782Z,96.70
2019-03-05T02:18:40.762Z,96.10
2019-03-05T02:21:13.721Z,97.50
2019-03-05T02:23:46.599Z,98.00
2019-03-05T02:26:19.602Z,98.20
2019-03-05T02:28:52.521Z,97.10
2019-03-05T02:31:25.826Z,98.20
2019-03-05T02:33:58.644Z,98.30
2019-03-05T02:36:31.561Z,97.80
2019-03-05T02:39:05.101Z,97.50
2019-03-05T02:41:38.260Z,98.40
2019-03-05T02:44:11.222Z,97.90
2019-03-05T02:46:44.149Z,97.30
2019-03-05T02:49:17.653Z,98.00
2019-03-05T02:51:50.764Z,98.80
2019-03-05T02:54:23.745Z,97.40
2019-03-05T02:56:57.102Z,97.80
2019-03-05T02:59:30.097Z,98.00
2019-03-05T03:02:22.702Z,97.20
2019-03-05T03:05:00.440Z,95.60
2019-03-05T03:07:33.497Z,96.30
2019-03-05T03:10:07.042Z,96.70
2019-03-05T03:12:40.241Z,95.60
2019-03-05T03:15:13.261Z,93.90
2019-03-05T03:17:46.321Z,93.80
2019-03-05T03:20:19.951Z,95.70
2019-03-05T03:22:53.448Z,96.00
2019-03-05T03:25:26.701Z,95.90
2019-03-05T03:28:00.241Z,94.40
2019-03-05T03:30:33.110Z,93.90
2019-03-05T03:33:06.601Z,94.40
2019-03-05T03:35:39.486Z,94.00
2019-03-05T03:38:13.029Z,94.50
2019-03-05T03:40:45.900Z,93.10
2019-03-05T03:43:18.821Z,92.30
2019-03-05T03:45:52.044Z,91.80
2019-03-05T03:48:24.944Z,88.80
2019-03-05T03:50:57.885Z,91.00
2019-03-05T03:53:31.241Z,91.80
2019-03-05T03:56:04.081Z,92.70
2019-03-05T03:58:37.261Z,91.60
2019-03-05T04:01:10.321Z,92.40
2019-03-05T04:03:43.387Z,92.10
2019-03-05T04:06:16.447Z,93.00
2019-03-05T04:08:49.482Z,90.40
2019-03-05T04:11:22.398Z,91.10
2019-03-05T04:13:58.462Z,90.10
2019-03-05T04:16:30.968Z,92.20
2019-03-05T04:19:05.402Z,90.80
2019-03-05T04:21:38.241Z,92.00
2019-03-05T04:24:11.340Z,92.70
2019-03-05T04:26:44.871Z,93.30
2019-03-05T04:29:17.772Z,92.20
2019-03-05T04:31:50.625Z,91.40
2019-03-05T04:34:23.572Z,91.50
2019-03-05T04:36:56.781Z,91.70
2019-03-05T04:39:29.661Z,92.30
2019-03-05T04:42:02.521Z,92.60
2019-03-05T04:44:37.015Z,93.30
2019-03-05T04:47:10.043Z,93.10
2019-03-05T04:49:50.441Z,92.10
2019-03-05T04:52:24.340Z,92.00
2019-03-05T04:54:57.401Z,91.50
2019-03-05T04:57:30.281Z,91.50
2019-03-05T05:00:03.123Z,90.20
2019-03-05T05:02:36.141Z,88.00
2019-03-05T05:05:09.100Z,90.40
2019-03-05T05:07:41.941Z,91.30
2019-03-05T05:10:15.003Z,88.50
2019-03-05T05:12:48.161Z,82.00
2019-03-05T05:15:21.020Z,83.80
2019-03-05T05:17:53.984Z,79.90
2019-03-05T05:20:26.921Z,86.10
2019-03-05T05:22:59.841Z,85.50
2019-03-05T05:25:32.742Z,86.50
2019-03-05T05:28:05.801Z,87.40
2019-03-05T05:30:38.661Z,85.80
2019-03-05T05:33:11.464Z,84.80
2019-03-05T05:35:44.576Z,84.00
2019-03-05T05:38:17.434Z,85.20
2019-03-05T05:40:50.524Z,86.50
2019-03-05T05:43:23.600Z,86.70
2019-03-05T05:45:56.908Z,83.60
2019-03-05T05:48:29.861Z,82.70
2019-03-05T05:51:02.901Z,83.50
2019-03-05T05:53:35.742Z,83.60
2019-03-05T05:56:08.553Z,84.10
2019-03-05T05:58:41.581Z,83.00
2019-03-05T06:01:14.481Z,83.00
2019-03-05T06:03:47.739Z,81.50
2019-03-05T06:06:20.637Z,83.10
2019-03-05T06:08:53.549Z,80.60
2019-03-05T06:11:26.521Z,80.40
2019-03-05T06:13:59.446Z,79.80
2019-03-05T06:16:32.541Z,78.80
2019-03-05T06:19:05.382Z,80.40
2019-03-05T06:21:38.401Z,79.50
2019-03-05T06:24:11.301Z,80.40
2019-03-05T06:26:44.281Z,74.90
2019-03-05T06:29:17.996Z,76.90
2019-03-05T06:31:50.881Z,75.20
2019-03-05T06:34:24.000Z,75.60
2019-03-05T06:36:56.928Z,72.00
2019-03-05T06:39:30.060Z,73.80
2019-03-05T06:42:02.776Z,72.60
2019-03-05T06:44:36.421Z,69.80
2019-03-05T06:47:09.242Z,74.10
2019-03-05T06:49:42.141Z,72.10
2019-03-05T06:52:15.065Z,70.60
2019-03-05T06:54:48.241Z,73.00
2019-03-05T06:57:21.589Z,74.40
2019-03-05T06:59:54.700Z,77.20
2019-03-05T07:02:27.681Z,78.30
2019-03-05T07:05:00.761Z,77.40
2019-03-05T07:07:34.081Z,79.50
2019-03-05T07:10:07.221Z,80.40
2019-03-05T07:12:40.341Z,78.70
2019-03-05T07:15:13.581Z,77.40
2019-03-05T07:17:46.468Z,77.60
2019-03-05T07:20:19.641Z,77.00
2019-03-05T07:22:52.840Z,72.00
2019-03-05T07:25:25.701Z,69.70
2019-03-05T07:27:58.761Z,68.40
2019-03-05T07:30:31.742Z,68.00
2019-03-05T07:33:04.523Z,70.30
2019-03-05T07:35:37.481Z,68.40
2019-03-05T07:38:10.401Z,67.80
2019-03-05T07:40:43.284Z,72.40
2019-03-05T07:43:19.081Z,68.60
2019-03-05T07:45:52.624Z,68.80
2019-03-05T07:48:25.441Z,68.60
2019-03-05T07:50:58.620Z,67.80
2019-03-05T07:53:31.941Z,69.00
2019-03-05T07:56:04.862Z,66.90
2019-03-05T07:58:38.441Z,67.60
2019-03-05T08:01:21.855Z,66.30
2019-03-05T08:03:45.921Z,65.30
2019-03-05T08:06:18.860Z,65.10
2019-03-05T08:08:51.680Z,66.70
2019-03-05T08:11:24.661Z,65.60
2019-03-05T08:13:57.681Z,67.70
2019-03-05T08:16:30.921Z,68.40
2019-03-05T08:19:03.980Z,67.70
2019-03-05T08:21:37.401Z,63.60
2019-03-05T08:24:10.261Z,68.30
2019-03-05T08:26:43.241Z,66.90
2019-03-05T08:29:16.381Z,66.10
2019-03-05T08:31:49.482Z,67.00
2019-03-05T08:34:22.301Z,66.40
2019-03-05T08:36:55.661Z,68.10
2019-03-05T08:39:28.522Z,69.10
2019-03-05T08:42:01.382Z,68.60
2019-03-05T08:44:35.162Z,68.60
2019-03-05T08:47:08.301Z,77.30
2019-03-05T08:49:41.140Z,73.80
2019-03-05T08:52:14.362Z,72.40
2019-03-05T08:54:47.241Z,70.10
2019-03-05T08:57:20.261Z,69.30
2019-03-05T08:59:53.161Z,72.50
2019-03-05T09:02:26.104Z,72.90
2019-03-05T09:04:58.961Z,73.20
2019-03-05T09:07:32.348Z,74.10
2019-03-05T09:10:05.182Z,72.60
2019-03-05T09:12:38.162Z,76.60
2019-03-05T09:15:11.745Z,74.00
2019-03-05T09:17:44.741Z,67.80
2019-03-05T09:20:17.641Z,69.20
2019-03-05T09:22:50.564Z,70.40
2019-03-05T09:25:23.420Z,70.60
2019-03-05T09:27:56.860Z,70.00
2019-03-05T09:30:30.044Z,68.90
2019-03-05T09:33:03.005Z,68.60
2019-03-05T09:35:35.922Z,69.10
2019-03-05T09:38:08.986Z,73.70
2019-03-05T09:40:42.522Z,76.60
2019-03-05T09:43:15.781Z,75.50
2019-03-05T09:45:48.941Z,72.00
2019-03-05T09:48:21.878Z,69.70
2019-03-05T09:50:54.801Z,68.50
2019-03-05T09:53:27.806Z,68.80
2019-03-05T09:56:01.001Z,67.40
2019-03-05T09:58:34.002Z,66.50
2019-03-05T10:01:07.188Z,67.10
2019-03-05T10:03:40.161Z,65.80
2019-03-05T10:06:13.081Z,69.00
2019-03-05T10:08:46.120Z,64.60
2019-03-05T10:11:18.967Z,60.90
2019-03-05T10:13:51.960Z,61.60
2019-03-05T10:16:24.841Z,63.10
2019-03-05T10:18:57.804Z,64.40
2019-03-05T10:21:30.841Z,60.30
2019-03-05T10:24:10.441Z,62.70
2019-03-05T10:26:38.461Z,64.70
2019-03-05T10:29:11.701Z,65.80
2019-03-05T10:31:44.888Z,66.80
2019-03-05T10:34:17.881Z,65.30
2019-03-05T10:36:51.241Z,66.40
2019-03-05T10:39:30.426Z,63.30
2019-03-05T10:41:59.763Z,60.50
2019-03-05T10:44:32.761Z,60.00
2019-03-05T10:47:06.681Z,60.80
2019-03-05T10:49:42.243Z,60.90
2019-03-05T10:52:15.923Z,61.50
2019-03-05T10:54:49.184Z,62.10
2019-03-05T10:57:22.360Z,64.30
2019-03-05T10:59:55.250Z,61.50
2019-03-05T11:02:28.483Z,63.30
2019-03-05T11:05:01.881Z,61.00
2019-03-05T11:07:35.334Z,61.90
2019-03-05T11:10:08.291Z,59.40
2019-03-05T11:12:41.246Z,58.00
2019-03-05T11:15:14.068Z,58.00
2019-03-05T11:17:47.084Z,58.20
2019-03-05T11:20:20.045Z,58.60
2019-03-05T11:22:53.000Z,54.00
2019-03-05T11:25:26.821Z,52.00
2019-03-05T11:28:00.360Z,50.70
2019-03-05T11:30:36.402Z,50.00
2019-03-05T11:33:08.541Z,52.90
2019-03-05T11:35:41.641Z,48.20
2019-03-05T11:38:14.582Z,53.20
2019-03-05T11:40:47.664Z,53.20
2019-03-05T11:43:21.299Z,49.70
2019-03-05T11:45:54.281Z,50.00
2019-03-05T11:48:27.221Z,49.20
2019-03-05T11:51:00.300Z,47.30
2019-03-05T11:53:33.561Z,48.60
2019-03-05T11:56:06.503Z,48.20
2019-03-05T11:58:40.436Z,47.40
2019-03-05T12:01:19.703Z,48.40
2019-03-05T12:03:53.301Z,47.20
2019-03-05T12:06:26.320Z,48.80
2019-03-05T12:08:59.261Z,46.90
2019-03-05T12:11:32.161Z,49.30
2019-03-05T12:14:05.081Z,48.40
2019-03-05T12:16:37.921Z,48.70
2019-03-05T12:19:11.380Z,48.90
2019-03-05T12:21:44.261Z,52.00
2019-03-05T12:24:19.915Z,49.30
2019-03-05T12:26:51.721Z,50.40
2019-03-05T12:29:24.684Z,54.70
2019-03-05T12:31:57.760Z,55.80
2019-03-05T12:34:30.548Z,56.10
2019-03-05T12:37:03.422Z,55.10
2019-03-05T12:39:36.401Z,55.00
2019-03-05T12:42:12.270Z,53.70
2019-03-05T12:44:45.800Z,50.80
2019-03-05T12:47:18.721Z,52.50
2019-03-05T12:49:51.640Z,52.50
2019-03-05T12:52:24.741Z,48.80
2019-03-05T12:54:58.059Z,51.90
2019-03-05T12:57:31.159Z,45.30
2019-03-05T13:00:04.919Z,44.10
2019-03-05T13:02:37.860Z,43.40
2019-03-05T13:05:10.821Z,44.70
2019-03-05T13:07:44.001Z,43.00
2019-03-05T13:10:16.940Z,43.20
2019-03-05T13:12:49.921Z,43.30
2019-03-05T13:15:22.779Z,43.60
2019-03-05T13:17:55.625Z,43.10
2019-03-05T13:20:28.761Z,38.00
2019-03-05T13:23:08.855Z,37.10
2019-03-05T13:25:38.551Z,38.90
2019-03-05T13:28:13.380Z,41.90
2019-03-05T13:30:46.774Z,43.30
2019-03-05T13:33:19.941Z,43.20
2019-03-05T13:35:53.041Z,45.30
2019-03-05T13:38:26.661Z,42.80
2019-03-05T13:40:59.562Z,45.70
2019-03-05T13:43:33.220Z,46.70
2019-03-05T13:46:06.140Z,45.90
2019-03-05T13:48:40.062Z,46.50
2019-03-05T13:51:13.195Z,46.30
2019-03-05T13:53:46.060Z,46.00
2019-03-05T13:56:19.901Z,50.10
2019-03-05T13:58:53.581Z,49.20
2019-03-05T14:01:28.519Z,50.10
2019-03-05T14:04:02.180Z,46.80
2019-03-05T14:06:35.021Z,50.00
2019-03-05T14:09:09.883Z,50.10
2019-03-05T14:11:43.666Z,49.80
2019-03-05T14:14:16.730Z,49.80
2019-03-05T14:16:51.430Z,49.90
2019-03-05T14:19:24.637Z,50.50
2019-03-05T14:21:58.042Z,51.40
2019-03-05T14:24:31.542Z,53.10
2019-03-05T14:27:04.378Z,51.90
2019-03-05T14:29:37.430Z,53.20
2019-03-05T14:32:10.814Z,54.20
2019-03-05T14:34:44.288Z,54.60
2019-03-05T14:37:17.295Z,53.80
2019-03-05T14:39:50.229Z,55.70
2019-03-05T14:42:23.197Z,53.90
2019-03-05T14:44:56.037Z,54.00
2019-03-05T14:47:29.301Z,54.00
2019-03-05T14:50:02.352Z,56.00
2019-03-05T14:52:35.283Z,54.70
2019-03-05T14:55:08.361Z,51.60
2019-03-05T14:57:41.772Z,52.50
2019-03-05T15:00:17.361Z,53.40
2019-03-05T15:02:50.611Z,51.80
2019-03-05T15:05:23.807Z,52.50
2019-03-05T15:07:56.736Z,53.10
2019-03-05T15:10:29.955Z,51.00
2019-03-05T15:13:14.922Z,51.40
2019-03-05T15:15:37.447Z,51.10
2019-03-05T15:18:10.981Z,49.40
2019-03-05T15:20:43.921Z,50.60
2019-03-05T15:23:16.866Z,50.80
2019-03-05T15:25:49.897Z,53.60
2019-03-05T15:28:22.731Z,49.10
2019-03-05T15:30:55.824Z,50.60
2019-03-05T15:33:28.702Z,52.90
2019-03-05T15:36:02.164Z,53.20
2019-03-05T15:38:35.192Z,53.30
2019-03-05T15:41:08.501Z,54.60
2019-03-05T15:43:41.543Z,54.60
2019-03-05T15:46:14.489Z,55.20
2019-03-05T15:48:47.434Z,57.00
2019-03-05T15:51:20.821Z,57.70
2019-03-05T15:53:54.000Z,58.80
2019-03-05T15:56:27.141Z,59.30
2019-03-05T15:59:00.001Z,60.50
2019-03-05T16:01:33.468Z,61.60
2019-03-05T16:04:06.740Z,62.80
2019-03-05T16:06:39.761Z,62.90
2019-03-05T16:09:12.680Z,64.00
2019-03-05T16:11:45.841Z,64.70
2019-03-05T16:14:18.802Z,65.00
2019-03-05T16:16:52.845Z,66.40
2019-03-05T16:19:26.148Z,67.50
2019-03-05T16:21:59.041Z,68.60
2019-03-05T16:24:33.828Z,69.80
2019-03-05T16:27:07.422Z,70.60
2019-03-05T16:29:40.299Z,72.70
2019-03-05T16:32:23.117Z,73.80
2019-03-05T16:35:02.785Z,74.50
2019-03-05T16:37:42.652Z,75.10
2019-03-05T16:40:28.701Z,76.10
2019-03-05T16:43:05.900Z,75.10
2019-03-05T16:45:43.081Z,74.70
2019-03-05T16:48:17.600Z,76.20
2019-03-05T16:51:07.181Z,78.00
2019-03-05T16:53:41.541Z,78.30
2019-03-05T16:56:22.885Z,78.60
2019-03-05T16:59:02.978Z,80.40
2019-03-05T17:01:38.441Z,81.10
2019-03-05T17:04:13.100Z,82.70
2019-03-05T17:06:56.384Z,83.50
2019-03-05T17:09:44.260Z,84.00
2019-03-05T17:12:17.250Z,84.70
2019-03-05T17:14:52.523Z,86.00
2019-03-05T17:17:26.099Z,86.90
2019-03-05T17:19:59.640Z,87.00
2019-03-05T17:22:32.800Z,84.90
2019-03-05T17:25:06.259Z,84.00
2019-03-05T17:27:39.261Z,81.70
2019-03-05T17:30:12.064Z,82.10
2019-03-05T17:32:45.580Z,76.40
2019-03-05T17:35:18.641Z,73.70
2019-03-05T17:37:52.040Z,71.80
2019-03-05T17:40:25.061Z,69.40
2019-03-05T17:42:58.000Z,69.90
2019-03-05T17:45:30.920Z,70.50
2019-03-05T17:48:03.980Z,71.40
2019-03-05T17:50:37.020Z,71.00
2019-03-05T17:53:09.944Z,70.70
2019-03-05T17:55:42.920Z,71.20
2019-03-05T17:58:16.050Z,71.50
2019-03-05T18:00:50.468Z,68.80
2019-03-05T18:03:23.560Z,67.60
2019-03-05T18:05:57.142Z,67.90
2019-03-05T18:08:30.121Z,67.80
2019-03-05T18:11:03.136Z,71.60
2019-03-05T18:13:35.920Z,72.90
2019-03-05T18:16:09.324Z,71.30
2019-03-05T18:18:42.281Z,69.80
2019-03-05T18:21:18.700Z,72.50
2019-03-05T18:23:51.491Z,73.40
2019-03-05T18:26:25.703Z,74.90
2019-03-05T18:28:58.611Z,72.20
2019-03-05T18:31:31.623Z,71.50
2019-03-05T18:34:04.402Z,72.40
2019-03-05T18:36:37.373Z,71.50
2019-03-05T18:39:10.803Z,74.00
2019-03-05T18:41:44.003Z,73.50
2019-03-05T18:44:17.582Z,70.70
2019-03-05T18:46:50.393Z,70.40
2019-03-05T18:49:24.224Z,73.90
2019-03-05T18:51:57.101Z,73.10
2019-03-05T18:54:31.761Z,74.00
2019-03-05T18:57:04.681Z,72.00
2019-03-05T18:59:37.822Z,72.00
2019-03-05T19:02:10.901Z,71.40
2019-03-05T19:04:43.740Z,70.40
2019-03-05T19:07:16.802Z,72.10
2019-03-05T19:09:50.200Z,73.70
2019-03-05T19:12:23.081Z,74.20
2019-03-05T19:14:55.959Z,74.90
2019-03-05T19:17:28.962Z,74.70
2019-03-05T19:20:01.862Z,78.40
2019-03-05T19:22:34.975Z,84.30
2019-03-05T19:25:08.184Z,90.00
2019-03-05T19:27:41.343Z,89.30
2019-03-05T19:30:14.202Z,88.90
2019-03-05T19:32:47.405Z,88.00
2019-03-05T19:35:20.321Z,87.80
2019-03-05T19:37:53.363Z,86.70
2019-03-05T19:40:26.203Z,87.00
2019-03-05T19:42:59.182Z,87.40
2019-03-05T19:45:32.083Z,86.60
2019-03-05T19:48:05.182Z,85.70
2019-03-05T19:50:38.796Z,84.60
2019-03-05T19:53:11.923Z,84.40
2019-03-05T19:55:44.864Z,83.40
2019-03-05T19:58:17.663Z,84.60
2019-03-05T20:01:00.323Z,84.00
2019-03-05T20:03:33.260Z,83.30
2019-03-05T20:06:06.619Z,84.10
2019-03-05T20:08:40.536Z,84.00
2019-03-05T20:11:14.601Z,84.70
2019-03-05T20:13:47.641Z,85.20
2019-03-05T20:16:20.530Z,85.40
2019-03-05T20:18:53.460Z,84.30
2019-03-05T20:21:27.242Z,83.50
2019-03-05T20:24:00.764Z,83.20
2019-03-05T20:26:33.819Z,83.80
2019-03-05T20:29:07.460Z,83.60
2019-03-05T20:31:40.360Z,82.80
2019-03-05T20:34:13.532Z,87.10
2019-03-05T20:36:46.700Z,86.20
2019-03-05T20:39:19.700Z,86.20
2019-03-05T20:41:52.689Z,86.20
2019-03-05T20:44:26.021Z,87.30
2019-03-05T20:46:59.400Z,85.50
2019-03-05T20:49:32.384Z,85.20
2019-03-05T20:52:05.360Z,85.20
2019-03-05T20:54:38.488Z,85.70
2019-03-05T20:57:12.208Z,86.70
2019-03-05T20:59:45.161Z,88.40
2019-03-05T21:02:18.901Z,87.00
2019-03-05T21:04:51.859Z,86.10
2019-03-05T21:07:25.000Z,85.80
2019-03-05T21:09:58.002Z,85.60
2019-03-05T21:12:31.360Z,84.90
2019-03-05T21:15:04.159Z,83.80
2019-03-05T21:17:37.080Z,83.10
2019-03-05T21:20:10.059Z,83.20
2019-03-05T21:22:43.001Z,82.60
2019-03-05T21:25:15.990Z,82.70
2019-03-05T21:27:49.700Z,82.00
2019-03-05T21:30:22.680Z,82.30
2019-03-05T21:32:55.481Z,82.30
2019-03-05T21:35:28.929Z,84.20
2019-03-05T21:38:01.960Z,84.00
2019-03-05T21:40:35.109Z,85.20
2019-03-05T21:43:08.501Z,86.40
2019-03-05T21:45:41.580Z,88.10
2019-03-05T21:48:14.648Z,90.10
2019-03-05T21:50:47.639Z,90.10
2019-03-05T21:53:20.529Z,88.10
2019-03-05T21:55:53.621Z,88.70
2019-03-05T21:58:26.439Z,88.50
2019-03-05T22:00:59.500Z,87.40
2019-03-05T22:03:32.401Z,86.40
2019-03-05T22:06:05.203Z,87.40
2019-03-05T22:08:39.268Z,86.60
2019-03-05T22:11:12.282Z,86.20
2019-03-05T22:13:45.200Z,85.60
2019-03-05T22:16:18.804Z,85.60
2019-03-05T22:18:51.600Z,85.90
2019-03-05T22:21:24.860Z,87.80
2019-03-05T22:23:58.040Z,88.50
2019-03-05T22:26:31.441Z,88.40
2019-03-05T22:29:04.281Z,87.40
2019-03-05T22:31:37.261Z,86.70
2019-03-05T22:34:10.080Z,86.90
2019-03-05T22:36:43.183Z,86.80
2019-03-05T22:39:16.782Z,85.60
2019-03-05T22:41:50.561Z,86.00
2019-03-05T22:44:23.500Z,86.10
2019-03-05T22:46:57.069Z,84.90
2019-03-05T22:49:36.041Z,85.00
2019-03-05T22:52:10.361Z,84.60
2019-03-05T22:54:43.180Z,84.30
2019-03-05T22:57:16.140Z,82.70
2019-03-05T22:59:49.079Z,81.70
2019-03-05T23:02:21.994Z,82.70
2019-03-05T23:04:56.040Z,81.20
2019-03-05T23:07:29.701Z,81.80
2019-03-05T23:10:02.522Z,81.60
2019-03-05T23:12:35.562Z,80.70
2019-03-05T23:15:08.520Z,80.10
2019-03-05T23:17:41.504Z,79.80
2019-03-05T23:20:15.086Z,79.30
2019-03-05T23:22:48.949Z,79.70
2019-03-05T23:25:22.521Z,79.20
2019-03-05T23:27:55.561Z,77.90
2019-03-05T23:30:29.063Z,80.10
2019-03-05T23:33:01.989Z,81.60
2019-03-05T23:35:35.181Z,82.10
2019-03-05T23:38:08.141Z,80.60
2019-03-05T23:40:41.149Z,81.20
2019-03-05T23:43:14.601Z,82.60
2019-03-05T23:45:47.610Z,79.70
2019-03-05T23:48:20.520Z,76.20
2019-03-05T23:50:53.483Z,79.30
2019-03-05T23:53:26.480Z,79.40
2019-03-05T23:55:59.650Z,79.00
2019-03-05T23:58:32.749Z,80.40
